Stations météo

Publicité
Rodkallen, Suède (2188): Température de l'air & dewpoint: 16.08.2018 01:00:00 - 22.08.2018 01:00:00 (CEST)Rodkallen, Suède (2188): Vitesse du vent & gusts: 16.08.2018 01:00:00 - 22.08.2018 01:00:00 (CEST)Rodkallen, Suède (2188): Direction du vent: 16.08.2018 01:00:00 - 22.08.2018 01:00:00 (CEST)Rodkallen, Suède (2188): visibility: 16.08.2018 01:00:00 - 22.08.2018 01:00:00 (CEST)Rodkallen, Suède (2188): Quantités de précipitations: 16.08.2018 01:00:00 - 22.08.2018 01:00:00 (CEST)
Date & Time tt [°C] td [°C] ff [km/h] ff [knt] fx [km/h] fx [knt] dd vv [km] rr [mm]
22.08.2018 01:00:00 11,3 5,6 23 12 37 20 WNW 50 0,0
22.08.2018 00:00:00 12,0 6,5 29 16 35 19 WNW 50 0,0
21.08.2018 23:00:00 12,6 7,3 25 14 30 16 WNW 50 0,0
21.08.2018 22:00:00 12,9 7,8 18 10 32 17 WNW 50 0,0
21.08.2018 21:00:00 13,6 6,2 20 11 32 17 WNW 50 0,0
21.08.2018 20:00:00 14,2 5,0 17 9 28 15 NW 50 0,0
21.08.2018 19:00:00 14,9 5,4 15 8 32 18 NW 50 0,0
21.08.2018 18:00:00 14,7 6,5 22 12 32 18 NW 44 0,0
21.08.2018 17:00:00 15,2 8,0 11 6 32 17 W 29 0,0
21.08.2018 16:00:00 15,7 4,7 14 8 42 23 NW 50 0,0
21.08.2018 15:00:00 15,7 4,7 13 7 42 23 NNW 41 0,0
21.08.2018 14:00:00 15,6 4,6 20 11 36 19 NW 36 0,0
21.08.2018 13:00:00 15,2 5,7 25 13 37 20 WNW 38 0,0
21.08.2018 12:00:00 14,3 5,1 29 15 37 20 WNW 34 0,0
21.08.2018 11:00:00 14,1 4,7 23 12 42 23 NW 35 0,0
21.08.2018 10:00:00 13,0 4,4 27 15 42 23 WNW 44 0,0
21.08.2018 09:00:00 12,4 5,1 25 13 42 23 NW 45 0,0
21.08.2018 08:00:00 11,4 5,1 26 14 40 21 NW 49 0,0
21.08.2018 07:00:00 10,3 4,4 28 15 45 24 NW 50 0,0
21.08.2018 06:00:00 9,9 4,5 30 16 45 24 NW 50 0,0
21.08.2018 05:00:00 10,4 5,0 31 17 45 24 WNW 50 0,0
21.08.2018 04:00:00 10,8 5,3 27 15 42 23 WNW 50 0,0
21.08.2018 03:00:00 11,7 5,8 27 14 39 21 NW 50 0,0
21.08.2018 02:00:00 12,2 6,7 23 13 31 17 NW 50 0,0
21.08.2018 01:00:00 12,6 7,9 20 11 29 16 NW 50 0,0
21.08.2018 00:00:00 12,7 7,6 17 9 29 16 NW 50 0,0
20.08.2018 23:00:00 13,4 7,2 21 12 28 15 WNW 50 0,0
20.08.2018 22:00:00 13,7 8,1 18 10 28 15 WNW 50 0,0
20.08.2018 21:00:00 14,3 10,1 16 9 31 17 WNW 50 0,0
20.08.2018 20:00:00 14,8 9,4 18 10 31 17 W 50 0,0
20.08.2018 19:00:00 15,0 9,1 16 9 22 12 W 50 0,0
20.08.2018 18:00:00 15,1 9,9 11 6 23 13 WNW 41 0,1
20.08.2018 17:00:00 15,0 9,8 9 5 25 14 NNE 32 0,1
20.08.2018 16:00:00 15,4 10,2 19 10 26 14 SSW 47 0,0
20.08.2018 15:00:00 14,5 10,1 20 11 26 14 SSW 39 0,0
20.08.2018 14:00:00 13,8 10,0 23 12 26 14 S 38 0,0
20.08.2018 13:00:00 13,6 9,8 21 12 27 15 S 41 0,0
20.08.2018 12:00:00 14,5 9,9 18 10 27 15 SW 38 0,0
20.08.2018 11:00:00 13,2 9,4 23 12 33 18 SSW 33 0,0
20.08.2018 10:00:00 13,3 9,0 21 12 36 20 SW 32 0,0
20.08.2018 09:00:00 13,0 7,4 29 15 36 20 WSW 43 0,0
20.08.2018 08:00:00 12,6 7,5 29 15 36 19 WSW 50 0,0
20.08.2018 07:00:00 11,9 7,2 25 14 42 23 SW 42 0,0
20.08.2018 06:00:00 11,7 7,0 31 17 42 23 SW 45 0,0
20.08.2018 05:00:00 11,9 6,4 35 19 51 28 SW 50 0,0
20.08.2018 04:00:00 12,0 6,5 36 20 53 29 WSW 50 0,0
20.08.2018 03:00:00 12,2 6,7 44 24 53 29 WSW 49 0,0
20.08.2018 02:00:00 12,4 6,9 41 22 53 29 WSW 50 0,0
20.08.2018 01:00:00 12,7 7,6 42 23 49 27 SW 50 0,0
20.08.2018 00:00:00 13,0 7,9 36 19 48 26 SW 50 0,0
19.08.2018 23:00:00 13,6 8,0 38 20 47 26 SW 50 0,0
19.08.2018 22:00:00 14,0 8,4 32 17 53 29 WSW 50 0,0
19.08.2018 21:00:00 14,7 8,6 31 17 53 29 WSW 50 0,0
19.08.2018 20:00:00 15,3 8,3 37 20 51 28 WSW 50 0,0
19.08.2018 19:00:00 15,9 8,6 34 18 42 23 WSW 46 0,0
19.08.2018 18:00:00 15,4 9,3 30 16 42 23 SW 50 0,0
19.08.2018 17:00:00 15,7 9,1 29 16 41 22 SW 45 0,0
19.08.2018 16:00:00 14,7 9,5 29 16 40 22 SSW 43 0,0
19.08.2018 15:00:00 15,5 9,2 29 15 39 21 SW 42 0,0
19.08.2018 14:00:00 15,6 9,0 27 14 39 21 SW 44 0,0
19.08.2018 13:00:00 15,3 9,0 29 16 37 20 SW 47 0,0
19.08.2018 12:00:00 13,6 9,4 27 14 37 20 SSW 41 0,0
19.08.2018 11:00:00 13,5 9,7 27 14 39 21 SSW 33 0,0
19.08.2018 10:00:00 12,9 10,1 29 16 43 23 SW 41 0,0
19.08.2018 09:00:00 12,7 9,7 31 17 44 24 SSW 36 0,0
19.08.2018 08:00:00 12,5 9,5 33 18 47 25 SW 50 0,0
19.08.2018 07:00:00 11,8 9,2 39 21 49 27 SSW 41 0,0
19.08.2018 06:00:00 12,2 9,6 37 20 54 29 SW 49 0,0
19.08.2018 05:00:00 13,0 9,8 40 21 54 29 SW 44 0,0
19.08.2018 04:00:00 12,5 11,7 44 24 54 29 SSW 14 0,0
19.08.2018 03:00:00 12,5 12,0 40 22 57 31 S 9 0,0
19.08.2018 02:00:00 12,9 12,3 46 25 57 31 S 13 0,0
19.08.2018 01:00:00 13,0 12,4 43 23 55 30 S 7 0,8
19.08.2018 00:00:00 13,1 12,5 45 24 53 29 S 7 1,3
18.08.2018 23:00:00 12,8 12,2 41 22 58 31 S 4,7 1,0
18.08.2018 22:00:00 13,1 12,0 40 22 58 31 S 12 0,4
18.08.2018 21:00:00 13,4 12,3 45 25 59 32 S 10 0,1
18.08.2018 20:00:00 13,8 12,4 46 25 62 33 S 16 0,0
18.08.2018 19:00:00 13,9 12,3 49 26 68 37 S 17 0,0
18.08.2018 18:00:00 14,2 12,1 53 29 68 37 S 18 0,0
18.08.2018 17:00:00 14,5 12,4 49 26 63 34 S 20 0,0
18.08.2018 16:00:00 14,8 12,7 52 28 63 34 S 19 0,0
18.08.2018 15:00:00 14,9 12,6 45 24 54 29 S 26 0,0
18.08.2018 14:00:00 15,2 13,0 35 19 45 25 S 25 0,0
18.08.2018 13:00:00 15,0 12,7 29 16 37 20 SSE 37 0,0
18.08.2018 12:00:00 13,2 12,4 20 11 24 13 SSE 2,8 0,0
18.08.2018 11:00:00 14,1 11,4 18 10 22 12 SSE 38 0,0
18.08.2018 10:00:00 14,8 11,6 8 5 19 10 S 41 0,0
18.08.2018 09:00:00 13,8 11,1 10 6 22 12 SW 42 0,0
18.08.2018 08:00:00 13,2 11,3 16 9 22 12 SSW 50 0,0
18.08.2018 07:00:00 12,9 11,1 18 10 24 13 SSW 45 0,0
18.08.2018 06:00:00 13,1 11,8 17 9 25 13 SSW 38 0,0
18.08.2018 05:00:00 12,6 11,8 22 12 35 19 SSW 26 0,0
18.08.2018 04:00:00 12,8 12,5 22 12 41 22 S 18 0,0
18.08.2018 03:00:00 12,4 12,1 29 16 42 23 SSW 0,7 0,0
18.08.2018 02:00:00 13,5 13,0 34 19 46 25 S 7 0,0
18.08.2018 01:00:00 14,0 13,5 33 18 46 25 S 7 0,0
18.08.2018 00:00:00 14,0 13,5 33 18 48 26 S 8 0,0
17.08.2018 23:00:00 14,1 13,5 36 20 48 26 S 9 0,0
17.08.2018 22:00:00 14,4 13,6 39 21 56 30 S 9 0,0
17.08.2018 21:00:00 14,7 13,6 39 21 59 32 S 11 0,0
17.08.2018 20:00:00 15,1 14,0 43 23 59 32 S 12 0,0
17.08.2018 19:00:00 15,4 14,1 48 26 60 33 S 11 0,0
17.08.2018 18:00:00 15,7 14,1 46 25 60 33 S 12 0,0
17.08.2018 17:00:00 15,5 14,0 31 17 64 35 S 10 0,0
17.08.2018 16:00:00 14,9 13,6 39 21 67 36 SSW 9 0,0
17.08.2018 15:00:00 15,9 14,3 54 29 68 37 S 10 0,0
17.08.2018 14:00:00 16,2 14,4 53 28 68 37 S 12 0,0
17.08.2018 13:00:00 16,4 14,8 52 28 63 34 S 11 0,0
17.08.2018 12:00:00 16,1 14,6 45 25 61 33 S 14 0,0
17.08.2018 11:00:00 16,2 14,6 46 25 59 32 S 16 0,0
17.08.2018 10:00:00 15,8 14,3 42 23 58 32 S 18 0,0
17.08.2018 09:00:00 16,2 14,6 45 24 57 31 S 20 0,0
17.08.2018 08:00:00 15,9 14,6 43 23 53 28 S 23 0,0
17.08.2018 07:00:00 15,8 14,3 42 23 53 28 S 24 0,0
17.08.2018 06:00:00 15,6 14,1 40 21 54 29 S 26 0,0
17.08.2018 05:00:00 15,7 14,4 44 24 53 28 S 26 0,0
17.08.2018 04:00:00 15,8 14,3 41 22 53 29 S 31 0,0
17.08.2018 03:00:00 16,0 14,7 41 22 59 32 S 29 0,0
17.08.2018 02:00:00 15,9 14,4 42 23 59 32 S 28 0,0
17.08.2018 01:00:00 16,0 14,5 39 21 46 25 S 31 0,0
17.08.2018 00:00:00 15,8 14,2 35 19 45 24 S 36 0,0
16.08.2018 23:00:00 15,8 14,0 34 18 48 26 S 42 0,0
16.08.2018 22:00:00 15,8 14,0 35 19 50 27 S 44 0,0
16.08.2018 21:00:00 15,7 14,1 35 19 50 27 S 38 0,0
16.08.2018 20:00:00 15,7 14,2 38 21 49 26 S 39 0,0
16.08.2018 19:00:00 15,9 13,7 36 19 48 26 S 44 0,0
16.08.2018 18:00:00 16,2 13,7 37 20 48 26 S 40 0,0
16.08.2018 17:00:00 16,2 13,9 37 20 50 27 SSE 44 0,0
16.08.2018 16:00:00 16,6 13,5 39 21 49 26 SSE 37 0,0
16.08.2018 15:00:00 16,4 12,9 37 20 46 25 SSE 39 0,0
16.08.2018 14:00:00 15,9 13,0 35 19 43 23 SSE 47 0,0
16.08.2018 13:00:00 15,9 13,0 31 17 41 22 SSE 45 0,0
16.08.2018 12:00:00 16,0 13,3 32 17 39 21 S 40 0,0
16.08.2018 11:00:00 16,0 13,1 27 15 34 18 S 40 0,0
16.08.2018 10:00:00 16,1 12,6 25 13 31 17 S 38 0,0
16.08.2018 09:00:00 15,7 11,9 24 13 29 16 S 46 0,0
16.08.2018 08:00:00 15,5 11,7 19 10 22 12 S 40 0,0
16.08.2018 07:00:00 15,0 11,4 17 9 20 11 SSE 50 0,0
16.08.2018 06:00:00 15,1 12,0 12 6 16 9 S 48 0,0
16.08.2018 05:00:00 14,9 11,7 12 6 14 8 S 50 0,0
16.08.2018 04:00:00 14,9 11,5 11 6 14 8 SSE 50 0,0
16.08.2018 03:00:00 14,9 11,9 11 6 18 10 SE 50 0,0
16.08.2018 02:00:00 14,8 11,6 11 6 19 10 SE 50 0,0
16.08.2018 01:00:00 14,8 11,0 14 8 20 11 SE 50 0,0

tt = Température de l'air
td = dewpoint
ff = Vitesse du vent
fx = gusts
dd = Direction du vent
vv = visibility
rr = Quantités de précipitations

stations d'obs. à proximité